• Join FlightAware (Why Join?)
  • Login
  • US Flag 
08:58PM EDT


 

Airport Tracker/Info


-or-


 

Live Flight TrackerFlight Track Log ✈ SWA1319 ✈ 19-Apr-2013 ✈ KOAK - KLAX

Flight Track Log - Related Links

Times and Time Zones

All times are in EDT time to prevent confusion due to time zone crossing. See the SWA1319 flight status page for this flight to view local times or setup timezone preferences in your user account.

Time Position Orientation Groundspeed Altitude Reporting Facility
EDT Latitude Longitude Course Direction KTS MPH feet Rate Location/Type
12:40AM 37.7500 -122.3500 284° West 224 258 5,400  Level Northern Cal TRACON
12:41AM 37.6833 -122.3833 202° Southwest 268 308 8,200 2,460 Climbing Northern Cal TRACON
12:42AM 37.5725 -122.3650 173° South 354 407 11,000 2,460 Climbing Oakland Center
12:43AM 37.4997 -122.2589 131° Southeast 399 459 14,100 2,700 Climbing Oakland Center
12:44AM 37.3307 -122.3624 150° Southeast  Level FlightAware Approximate
12:44AM 37.4169 -122.1544 135° Southeast 424 488 16,500  Level Oakland Center
12:45AM 37.3303 -122.0419 134° Southeast 445 512 19,000 2,280 Climbing Oakland Center
12:46AM 37.2414 -121.9278 134° Southeast 457 526 21,200 2,100 Climbing Oakland Center
12:47AM 37.1469 -121.8089 135° Southeast 475 547 23,300 1,920 Climbing Oakland Center
12:48AM 37.0503 -121.6908 136° Southeast 489 563 25,100 1,560 Climbing Oakland Center
12:49AM 36.9494 -121.5667 135° Southeast 506 582 26,500 1,500 Climbing Oakland Center
12:50AM 36.8494 -121.4361 134° Southeast 517 595 28,200 2,160 Climbing Oakland Center
12:51AM 36.7369 -121.3000 136° Southeast 509 586 31,000 2,280 Climbing Oakland Center
12:52AM 36.6403 -121.1789 135° Southeast 494 568 32,900 1,500 Climbing Oakland Center
12:53AM 36.5411 -121.0586 136° Southeast 495 570 34,100 1,020 Climbing Oakland Center
12:54AM 36.4428 -120.9358 135° Southeast 499 574 35,000 420 Climbing Oakland Center
12:55AM 36.3425 -120.8147 136° Southeast 503 579 35,000  Level Oakland Center
12:56AM 36.2419 -120.6936 136° Southeast 505 581 35,000  Level Oakland Center
12:57AM 36.1433 -120.5708 135° Southeast 501 577 35,000  Level Oakland Center
12:58AM 36.0428 -120.4497 136° Southeast 506 582 35,000  Level Oakland Center
12:59AM 35.9447 -120.3339 136° Southeast 487 560 35,000  Level Oakland Center
01:00AM 35.8453 -120.2144 136° Southeast 493 567 35,000  Level Oakland Center
01:01AM 35.7458 -120.0958 136° Southeast 494 568 35,000  Level Oakland Center
01:02AM 35.6453 -119.9767 136° Southeast 495 570 35,000  Level Oakland Center
01:03AM 35.5322 -119.8792 145° Southeast 488 562 35,000  Level Oakland Center
01:04AM 35.4186 -119.7811 145° Southeast 493 567 35,000  Level Oakland Center
01:05AM 35.3056 -119.6839 145° Southeast 496 571 35,000  Level Los Angeles Center
01:06AM 35.1936 -119.5875 145° Southeast 493 567 35,000  Level Los Angeles Center
01:07AM 35.0844 -119.4942 145° Southeast 481 554 35,000 -1,320 Level Los Angeles Center
01:08AM 34.9725 -119.3994 145° Southeast 487 560 32,400 -3,060 Descending Los Angeles Center
01:09AM 34.8619 -119.3050 145° Southeast 487 560 28,800 -3,000 Descending Los Angeles Center
01:10AM 34.7744 -119.2311 145° Southeast 480 552 26,400 -2,940 Descending Los Angeles Center
01:11AM 34.6328 -119.1139 146° Southeast 468 539 22,900 -3,000 Descending Los Angeles Center
01:12AM 34.5303 -119.0267 145° Southeast 448 516 20,300 -2,520 Descending Los Angeles Center
01:13AM 34.4333 -118.9456 145° Southeast 426 490 17,800 -2,460 Descending Los Angeles Center
01:14AM 34.3364 -118.8717 148° Southeast 413 475 15,300 -2,400 Descending Los Angeles Center
01:15AM 34.2300 -118.8350 164° South 398 458 12,900 -1,620 Descending Los Angeles Center
01:16AM 34.1294 -118.7983 163° South 378 435 12,000 -1,320 Descending Los Angeles Center
01:17AM 34.0356 -118.7275 148° Southeast 348 400 10,300 -1,020 Descending Los Angeles Center
01:18AM 34.0258 -118.6225 96° East 313 360 10,000 -900 Descending Los Angeles Center
01:19AM 34.0164 -118.5247 97° East 295 339 8,500 -1,500 Descending Los Angeles Center
01:20AM 34.0119 -118.4328 93° East 280 322 7,000 -1,860 Descending Los Angeles Center
01:21AM 34.0217 -118.3411 83° East 275 316 4,800 -1,680 Descending Los Angeles Center
01:23AM 34.0189 -118.2531 92° East 277 319 3,700 -900 Descending Los Angeles Center
01:24AM 33.9714 -118.2625 189° South 217 250 3,000 -1,020 Descending Los Angeles Center
01:25AM 33.9597 -118.3203 256° West 192 221 1,700 -1,080 Descending Los Angeles Center
01:26AM 33.9572 -118.3661 266° West 161 185 800 -780 Descending Los Angeles Center
01:27AM 33.9519 -118.4078 261° West 141 162 200 -600 Descending Los Angeles Center
01:29AM 33.9425 -118.4081 228° Southwest  Level Estimated